sensor_id;sensor_type;location;lat;lon;timestamp;pressure;altitude;pressure_sealevel;temperature;humidity
64340;BME280;63709;53.258;-8.814;2024-03-23T00:55:47;101930.69;;;8.94;100.00
64340;BME280;63709;53.258;-8.814;2024-03-23T00:58:12;101928.84;;;8.77;100.00
64340;BME280;63709;53.258;-8.814;2024-03-23T01:00:38;101929.66;;;8.79;100.00
64340;BME280;63709;53.258;-8.814;2024-03-23T01:03:03;101931.78;;;8.90;100.00
64340;BME280;63709;53.258;-8.814;2024-03-23T01:05:29;101920.97;;;8.76;100.00
64340;BME280;63709;53.258;-8.814;2024-03-23T01:07:54;101929.19;;;8.88;100.00
64340;BME280;63709;53.258;-8.814;2024-03-23T01:10:19;101925.56;;;8.89;100.00
64340;BME280;63709;53.258;-8.814;2024-03-23T01:12:45;101916.59;;;8.92;100.00
64340;BME280;63709;53.258;-8.814;2024-03-23T01:15:11;101923.72;;;8.91;100.00
64340;BME280;63709;53.258;-8.814;2024-03-23T01:17:36;101912.06;;;8.94;100.00
64340;BME280;63709;53.258;-8.814;2024-03-23T01:20:01;101919.88;;;8.80;100.00
64340;BME280;63709;53.258;-8.814;2024-03-23T01:22:27;101921.13;;;8.90;100.00
64340;BME280;63709;53.258;-8.814;2024-03-23T01:24:53;101919.81;;;8.99;100.00
64340;BME280;63709;53.258;-8.814;2024-03-23T01:27:18;101914.38;;;9.00;100.00
64340;BME280;63709;53.258;-8.814;2024-03-23T01:29:43;101914.63;;;8.95;100.00
64340;BME280;63709;53.258;-8.814;2024-03-23T01:32:09;101902.56;;;9.06;100.00
64340;BME280;63709;53.258;-8.814;2024-03-23T01:34:34;101885.09;;;9.17;100.00
64340;BME280;63709;53.258;-8.814;2024-03-23T01:37:00;101888.78;;;9.15;100.00
64340;BME280;63709;53.258;-8.814;2024-03-23T01:39:25;101888.00;;;9.13;100.00
64340;BME280;63709;53.258;-8.814;2024-03-23T01:41:50;101887.06;;;9.14;100.00
64340;BME280;63709;53.258;-8.814;2024-03-23T01:44:16;101897.22;;;9.23;100.00
64340;BME280;63709;53.258;-8.814;2024-03-23T01:46:42;101882.31;;;9.36;100.00
64340;BME280;63709;53.258;-8.814;2024-03-23T01:49:08;101884.59;;;9.27;100.00
64340;BME280;63709;53.258;-8.814;2024-03-23T01:51:34;101881.06;;;9.26;100.00
64340;BME280;63709;53.258;-8.814;2024-03-23T01:54:03;101870.97;;;9.33;100.00
64340;BME280;63709;53.258;-8.814;2024-03-23T01:56:32;101856.13;;;9.44;100.00
64340;BME280;63709;53.258;-8.814;2024-03-23T01:59:01;101846.72;;;9.37;100.00
64340;BME280;63709;53.258;-8.814;2024-03-23T02:01:26;101850.06;;;9.25;100.00
64340;BME280;63709;53.258;-8.814;2024-03-23T02:03:51;101843.63;;;9.12;100.00
64340;BME280;63709;53.258;-8.814;2024-03-23T02:06:17;101840.06;;;9.13;100.00
64340;BME280;63709;53.258;-8.814;2024-03-23T02:08:43;101849.91;;;9.11;100.00
64340;BME280;63709;53.258;-8.814;2024-03-23T02:11:08;101849.72;;;8.98;100.00
64340;BME280;63709;53.258;-8.814;2024-03-23T02:13:34;101852.91;;;8.87;100.00
64340;BME280;63709;53.258;-8.814;2024-03-23T02:15:59;101843.03;;;8.89;100.00
64340;BME280;63709;53.258;-8.814;2024-03-23T02:18:24;101838.09;;;8.99;100.00
64340;BME280;63709;53.258;-8.814;2024-03-23T02:20:50;101824.59;;;8.86;100.00
64340;BME280;63709;53.258;-8.814;2024-03-23T02:23:15;101824.25;;;9.10;100.00
64340;BME280;63709;53.258;-8.814;2024-03-23T02:25:41;101830.09;;;9.16;100.00
64340;BME280;63709;53.258;-8.814;2024-03-23T02:28:06;101817.66;;;9.17;100.00
64340;BME280;63709;53.258;-8.814;2024-03-23T02:30:32;101817.00;;;9.12;100.00
64340;BME280;63709;53.258;-8.814;2024-03-23T02:32:57;101813.88;;;9.21;100.00
64340;BME280;63709;53.258;-8.814;2024-03-23T02:35:22;101803.06;;;9.24;100.00
64340;BME280;63709;53.258;-8.814;2024-03-23T02:37:48;101794.13;;;9.25;100.00
64340;BME280;63709;53.258;-8.814;2024-03-23T02:40:14;101786.16;;;9.08;100.00
64340;BME280;63709;53.258;-8.814;2024-03-23T02:42:40;101792.97;;;9.13;100.00
64340;BME280;63709;53.258;-8.814;2024-03-23T02:45:05;101784.34;;;9.08;100.00
64340;BME280;63709;53.258;-8.814;2024-03-23T02:47:30;101794.16;;;9.08;100.00
64340;BME280;63709;53.258;-8.814;2024-03-23T02:49:56;101800.28;;;8.92;100.00
64340;BME280;63709;53.258;-8.814;2024-03-23T02:52:21;101798.13;;;8.83;100.00
64340;BME280;63709;53.258;-8.814;2024-03-23T02:54:46;101797.75;;;9.07;100.00
64340;BME280;63709;53.258;-8.814;2024-03-23T02:57:11;101794.41;;;9.03;100.00
64340;BME280;63709;53.258;-8.814;2024-03-23T02:59:37;101779.28;;;9.04;100.00
64340;BME280;63709;53.258;-8.814;2024-03-23T03:02:02;101769.13;;;8.94;100.00
64340;BME280;63709;53.258;-8.814;2024-03-23T03:04:29;101781.41;;;9.30;100.00
64340;BME280;63709;53.258;-8.814;2024-03-23T03:06:54;101756.66;;;9.28;100.00
64340;BME280;63709;53.258;-8.814;2024-03-23T03:09:20;101744.72;;;9.35;100.00
64340;BME280;63709;53.258;-8.814;2024-03-23T03:11:46;101751.75;;;9.36;100.00
64340;BME280;63709;53.258;-8.814;2024-03-23T03:14:11;101752.56;;;9.38;100.00
64340;BME280;63709;53.258;-8.814;2024-03-23T03:16:36;101757.19;;;9.35;100.00
64340;BME280;63709;53.258;-8.814;2024-03-23T03:19:02;101765.63;;;9.43;100.00
64340;BME280;63709;53.258;-8.814;2024-03-23T03:21:27;101735.19;;;9.31;100.00
64340;BME280;63709;53.258;-8.814;2024-03-23T03:23:53;101752.28;;;9.43;100.00
64340;BME280;63709;53.258;-8.814;2024-03-23T03:26:19;101758.16;;;9.50;100.00
64340;BME280;63709;53.258;-8.814;2024-03-23T03:28:44;101759.34;;;9.44;100.00
64340;BME280;63709;53.258;-8.814;2024-03-23T03:31:13;101748.94;;;9.55;100.00
64340;BME280;63709;53.258;-8.814;2024-03-23T03:33:39;101748.94;;;9.24;100.00
64340;BME280;63709;53.258;-8.814;2024-03-23T03:36:04;101745.66;;;9.34;100.00
64340;BME280;63709;53.258;-8.814;2024-03-23T03:38:29;101724.34;;;9.34;100.00
64340;BME280;63709;53.258;-8.814;2024-03-23T03:40:55;101732.44;;;9.49;100.00
64340;BME280;63709;53.258;-8.814;2024-03-23T03:43:20;101729.75;;;9.49;100.00
64340;BME280;63709;53.258;-8.814;2024-03-23T03:45:56;101738.53;;;9.51;100.00
64340;BME280;63709;53.258;-8.814;2024-03-23T03:48:22;101735.19;;;9.47;100.00
64340;BME280;63709;53.258;-8.814;2024-03-23T03:50:47;101738.59;;;9.33;100.00
64340;BME280;63709;53.258;-8.814;2024-03-23T03:53:12;101734.34;;;9.47;100.00
64340;BME280;63709;53.258;-8.814;2024-03-23T03:55:37;101715.59;;;9.32;100.00
64340;BME280;63709;53.258;-8.814;2024-03-23T03:58:03;101717.97;;;9.21;100.00
64340;BME280;63709;53.258;-8.814;2024-03-23T04:00:29;101719.56;;;9.08;100.00
64340;BME280;63709;53.258;-8.814;2024-03-23T04:02:55;101721.81;;;9.15;100.00
64340;BME280;63709;53.258;-8.814;2024-03-23T04:05:20;101712.66;;;9.21;100.00
64340;BME280;63709;53.258;-8.814;2024-03-23T04:07:46;101689.44;;;9.23;100.00
64340;BME280;63709;53.258;-8.814;2024-03-23T04:10:11;101695.31;;;9.45;100.00
64340;BME280;63709;53.258;-8.814;2024-03-23T04:12:36;101695.38;;;9.12;100.00
64340;BME280;63709;53.258;-8.814;2024-03-23T04:15:02;101695.06;;;9.50;100.00
64340;BME280;63709;53.258;-8.814;2024-03-23T04:17:29;101694.78;;;9.55;100.00
64340;BME280;63709;53.258;-8.814;2024-03-23T04:19:57;101691.00;;;9.43;100.00
64340;BME280;63709;53.258;-8.814;2024-03-23T04:22:22;101695.91;;;9.35;100.00
64340;BME280;63709;53.258;-8.814;2024-03-23T04:24:49;101689.97;;;9.45;100.00
64340;BME280;63709;53.258;-8.814;2024-03-23T04:27:15;101689.97;;;9.45;100.00
64340;BME280;63709;53.258;-8.814;2024-03-23T04:29:40;101694.00;;;9.53;100.00
64340;BME280;63709;53.258;-8.814;2024-03-23T04:32:05;101703.66;;;9.39;100.00
64340;BME280;63709;53.258;-8.814;2024-03-23T04:34:30;101695.97;;;9.49;100.00
64340;BME280;63709;53.258;-8.814;2024-03-23T04:36:58;101678.00;;;9.53;100.00
64340;BME280;63709;53.258;-8.814;2024-03-23T04:39:23;101686.78;;;9.55;100.00
64340;BME280;63709;53.258;-8.814;2024-03-23T04:41:48;101694.78;;;9.55;100.00
64340;BME280;63709;53.258;-8.814;2024-03-23T04:44:13;101693.25;;;9.51;100.00
64340;BME280;63709;53.258;-8.814;2024-03-23T04:46:39;101685.84;;;9.40;100.00
64340;BME280;63709;53.258;-8.814;2024-03-23T04:49:04;101703.72;;;9.54;100.00
64340;BME280;63709;53.258;-8.814;2024-03-23T04:51:34;101681.63;;;9.36;100.00
64340;BME280;63709;53.258;-8.814;2024-03-23T04:54:00;101676.91;;;9.25;100.00
64340;BME280;63709;53.258;-8.814;2024-03-23T04:56:25;101660.16;;;9.39;100.00
64340;BME280;63709;53.258;-8.814;2024-03-23T04:58:50;101648.56;;;9.24;100.00
64340;BME280;63709;53.258;-8.814;2024-03-23T05:01:16;101654.41;;;9.31;100.00
64340;BME280;63709;53.258;-8.814;2024-03-23T05:03:41;101655.44;;;9.12;100.00
64340;BME280;63709;53.258;-8.814;2024-03-23T05:06:06;101669.50;;;8.99;100.00
64340;BME280;63709;53.258;-8.814;2024-03-23T05:08:32;101662.22;;;9.18;100.00
64340;BME280;63709;53.258;-8.814;2024-03-23T05:10:57;101658.78;;;9.16;100.00
64340;BME280;63709;53.258;-8.814;2024-03-23T05:13:22;101655.66;;;9.08;100.00
64340;BME280;63709;53.258;-8.814;2024-03-23T05:15:54;101655.66;;;9.08;100.00
64340;BME280;63709;53.258;-8.814;2024-03-23T05:18:20;101648.03;;;9.17;100.00
64340;BME280;63709;53.258;-8.814;2024-03-23T05:20:45;101651.72;;;9.15;100.00
64340;BME280;63709;53.258;-8.814;2024-03-23T05:23:10;101649.69;;;9.20;100.00
64340;BME280;63709;53.258;-8.814;2024-03-23T05:25:35;101645.19;;;9.05;100.00
64340;BME280;63709;53.258;-8.814;2024-03-23T05:28:01;101644.50;;;9.01;100.00
64340;BME280;63709;53.258;-8.814;2024-03-23T05:30:26;101652.66;;;8.98;100.00
64340;BME280;63709;53.258;-8.814;2024-03-23T05:32:52;101648.25;;;8.81;100.00
64340;BME280;63709;53.258;-8.814;2024-03-23T05:35:17;101641.91;;;9.00;100.00
64340;BME280;63709;53.258;-8.814;2024-03-23T05:37:42;101624.91;;;9.02;100.00
64340;BME280;63709;53.258;-8.814;2024-03-23T05:40:08;101628.00;;;9.10;100.00
64340;BME280;63709;53.258;-8.814;2024-03-23T05:42:34;101624.59;;;9.24;100.00
64340;BME280;63709;53.258;-8.814;2024-03-23T05:44:59;101636.44;;;9.18;100.00
64340;BME280;63709;53.258;-8.814;2024-03-23T05:47:25;101633.31;;;9.26;100.00
64340;BME280;63709;53.258;-8.814;2024-03-23T05:49:50;101627.50;;;9.35;100.00
64340;BME280;63709;53.258;-8.814;2024-03-23T05:52:17;101632.31;;;9.29;100.00
64340;BME280;63709;53.258;-8.814;2024-03-23T05:54:42;101631.28;;;9.31;100.00
64340;BME280;63709;53.258;-8.814;2024-03-23T05:57:08;101631.63;;;9.25;100.00
64340;BME280;63709;53.258;-8.814;2024-03-23T05:59:33;101635.81;;;9.29;100.00
64340;BME280;63709;53.258;-8.814;2024-03-23T06:01:59;101631.53;;;9.27;100.00
64340;BME280;63709;53.258;-8.814;2024-03-23T06:04:24;101611.44;;;9.21;100.00
64340;BME280;63709;53.258;-8.814;2024-03-23T06:06:51;101617.34;;;9.26;100.00
64340;BME280;63709;53.258;-8.814;2024-03-23T06:09:17;101614.44;;;9.15;100.00
64340;BME280;63709;53.258;-8.814;2024-03-23T06:11:42;101625.00;;;9.16;100.00
64340;BME280;63709;53.258;-8.814;2024-03-23T06:14:08;101622.25;;;9.18;100.00
64340;BME280;63709;53.258;-8.814;2024-03-23T06:16:33;101625.09;;;9.15;100.00
64340;BME280;63709;53.258;-8.814;2024-03-23T06:18:58;101629.81;;;9.10;100.00
64340;BME280;63709;53.258;-8.814;2024-03-23T06:21:24;101626.72;;;9.17;100.00
64340;BME280;63709;53.258;-8.814;2024-03-23T06:23:51;101636.16;;;9.07;100.00
64340;BME280;63709;53.258;-8.814;2024-03-23T06:26:20;101628.59;;;9.00;100.00
64340;BME280;63709;53.258;-8.814;2024-03-23T06:28:46;101636.06;;;8.93;100.00
64340;BME280;63709;53.258;-8.814;2024-03-23T06:31:11;101637.97;;;8.91;100.00
64340;BME280;63709;53.258;-8.814;2024-03-23T06:33:37;101636.59;;;9.00;100.00
64340;BME280;63709;53.258;-8.814;2024-03-23T06:36:03;101631.19;;;9.17;100.00
64340;BME280;63709;53.258;-8.814;2024-03-23T06:38:28;101624.22;;;8.99;100.00
64340;BME280;63709;53.258;-8.814;2024-03-23T06:40:54;101617.84;;;8.85;100.00
64340;BME280;63709;53.258;-8.814;2024-03-23T06:43:19;101630.78;;;9.09;100.00
64340;BME280;63709;53.258;-8.814;2024-03-23T06:45:44;101631.63;;;9.09;100.00
64340;BME280;63709;53.258;-8.814;2024-03-23T06:48:17;101626.47;;;8.90;100.00
64340;BME280;63709;53.258;-8.814;2024-03-23T06:50:42;101625.69;;;9.04;100.00
64340;BME280;63709;53.258;-8.814;2024-03-23T06:53:07;101633.19;;;9.13;100.00
64340;BME280;63709;53.258;-8.814;2024-03-23T06:55:32;101639.63;;;9.09;100.00
64340;BME280;63709;53.258;-8.814;2024-03-23T06:57:58;101635.91;;;9.12;100.00
64340;BME280;63709;53.258;-8.814;2024-03-23T07:00:23;101636.84;;;9.11;100.00
64340;BME280;63709;53.258;-8.814;2024-03-23T07:02:50;101624.06;;;9.02;100.00
64340;BME280;63709;53.258;-8.814;2024-03-23T07:05:15;101629.97;;;9.07;100.00
64340;BME280;63709;53.258;-8.814;2024-03-23T07:07:40;101629.28;;;9.19;100.00
64340;BME280;63709;53.258;-8.814;2024-03-23T07:10:06;101621.91;;;9.08;100.00
64340;BME280;63709;53.258;-8.814;2024-03-23T07:12:31;101619.22;;;9.08;100.00
64340;BME280;63709;53.258;-8.814;2024-03-23T07:14:56;101636.84;;;9.11;100.00
64340;BME280;63709;53.258;-8.814;2024-03-23T07:17:22;101628.38;;;9.20;100.00
64340;BME280;63709;53.258;-8.814;2024-03-23T07:19:47;101635.56;;;9.18;100.00
64340;BME280;63709;53.258;-8.814;2024-03-23T07:22:13;101627.06;;;9.11;100.00
64340;BME280;63709;53.258;-8.814;2024-03-23T07:24:38;101633.41;;;8.93;100.00
64340;BME280;63709;53.258;-8.814;2024-03-23T07:27:04;101626.91;;;9.14;100.00
64340;BME280;63709;53.258;-8.814;2024-03-23T07:29:29;101609.19;;;9.13;100.00
64340;BME280;63709;53.258;-8.814;2024-03-23T07:31:55;101617.28;;;9.28;100.00
64340;BME280;63709;53.258;-8.814;2024-03-23T07:34:20;101625.78;;;9.18;100.00
64340;BME280;63709;53.258;-8.814;2024-03-23T07:36:45;101637.13;;;9.22;100.00
64340;BME280;63709;53.258;-8.814;2024-03-23T07:39:10;101628.97;;;9.25;100.00
64340;BME280;63709;53.258;-8.814;2024-03-23T07:41:36;101640.03;;;9.17;100.00
64340;BME280;63709;53.258;-8.814;2024-03-23T07:44:02;101637.19;;;9.36;100.00
64340;BME280;63709;53.258;-8.814;2024-03-23T07:46:27;101623.78;;;9.38;100.00
64340;BME280;63709;53.258;-8.814;2024-03-23T07:48:52;101637.56;;;9.46;100.00
64340;BME280;63709;53.258;-8.814;2024-03-23T07:51:20;101646.13;;;9.51;100.00
64340;BME280;63709;53.258;-8.814;2024-03-23T07:53:46;101648.28;;;9.44;100.00
64340;BME280;63709;53.258;-8.814;2024-03-23T07:56:12;101655.59;;;9.41;100.00
64340;BME280;63709;53.258;-8.814;2024-03-23T07:58:40;101666.00;;;9.30;100.00
64340;BME280;63709;53.258;-8.814;2024-03-23T08:01:06;101663.81;;;9.52;100.00
64340;BME280;63709;53.258;-8.814;2024-03-23T08:03:33;101658.22;;;9.73;100.00
64340;BME280;63709;53.258;-8.814;2024-03-23T08:06:06;101646.88;;;9.69;100.00
64340;BME280;63709;53.258;-8.814;2024-03-23T08:08:31;101651.13;;;9.87;100.00
64340;BME280;63709;53.258;-8.814;2024-03-23T08:10:56;101651.47;;;9.81;100.00
64340;BME280;63709;53.258;-8.814;2024-03-23T08:13:21;101640.09;;;9.93;100.00
64340;BME280;63709;53.258;-8.814;2024-03-23T08:15:49;101649.59;;;9.83;100.00
64340;BME280;63709;53.258;-8.814;2024-03-23T08:18:14;101649.91;;;9.93;100.00
64340;BME280;63709;53.258;-8.814;2024-03-23T08:20:40;101653.47;;;10.08;100.00
64340;BME280;63709;53.258;-8.814;2024-03-23T08:23:06;101661.41;;;9.79;100.00
64340;BME280;63709;53.258;-8.814;2024-03-23T08:25:31;101676.09;;;9.86;100.00
64340;BME280;63709;53.258;-8.814;2024-03-23T08:27:57;101697.97;;;10.07;100.00
64340;BME280;63709;53.258;-8.814;2024-03-23T08:30:22;101698.25;;;10.03;100.00
64340;BME280;63709;53.258;-8.814;2024-03-23T08:32:48;101692.81;;;10.04;100.00
64340;BME280;63709;53.258;-8.814;2024-03-23T08:35:13;101691.31;;;10.14;100.00
64340;BME280;63709;53.258;-8.814;2024-03-23T08:37:39;101674.06;;;10.06;100.00
64340;BME280;63709;53.258;-8.814;2024-03-23T08:40:04;101653.41;;;10.09;100.00
64340;BME280;63709;53.258;-8.814;2024-03-23T08:42:30;101664.09;;;10.24;100.00
64340;BME280;63709;53.258;-8.814;2024-03-23T08:44:55;101669.19;;;10.28;100.00
64340;BME280;63709;53.258;-8.814;2024-03-23T08:47:20;101661.25;;;10.27;100.00
64340;BME280;63709;53.258;-8.814;2024-03-23T08:49:46;101663.59;;;10.47;100.00
64340;BME280;63709;53.258;-8.814;2024-03-23T08:52:11;101664.63;;;10.45;100.00
64340;BME280;63709;53.258;-8.814;2024-03-23T08:54:36;101673.44;;;10.61;100.00
64340;BME280;63709;53.258;-8.814;2024-03-23T08:57:01;101681.06;;;10.67;100.00
64340;BME280;63709;53.258;-8.814;2024-03-23T08:59:27;101682.22;;;10.92;100.00
64340;BME280;63709;53.258;-8.814;2024-03-23T09:01:52;101673.41;;;11.04;100.00
64340;BME280;63709;53.258;-8.814;2024-03-23T09:04:18;101676.53;;;11.25;100.00
64340;BME280;63709;53.258;-8.814;2024-03-23T09:06:43;101677.41;;;11.25;100.00
64340;BME280;63709;53.258;-8.814;2024-03-23T09:09:09;101678.13;;;11.42;100.00
64340;BME280;63709;53.258;-8.814;2024-03-23T09:11:34;101684.25;;;11.44;100.00
64340;BME280;63709;53.258;-8.814;2024-03-23T09:13:59;101678.72;;;11.32;100.00
64340;BME280;63709;53.258;-8.814;2024-03-23T09:16:24;101665.06;;;11.37;100.00
64340;BME280;63709;53.258;-8.814;2024-03-23T09:18:50;101658.09;;;11.34;100.00
64340;BME280;63709;53.258;-8.814;2024-03-23T09:21:15;101663.25;;;11.37;100.00
64340;BME280;63709;53.258;-8.814;2024-03-23T09:23:43;101652.81;;;11.74;100.00
64340;BME280;63709;53.258;-8.814;2024-03-23T09:26:09;101652.78;;;11.89;100.00
64340;BME280;63709;53.258;-8.814;2024-03-23T09:28:34;101665.09;;;11.91;100.00
64340;BME280;63709;53.258;-8.814;2024-03-23T09:31:07;101654.28;;;11.66;100.00
64340;BME280;63709;53.258;-8.814;2024-03-23T09:33:32;101656.13;;;11.78;100.00
64340;BME280;63709;53.258;-8.814;2024-03-23T09:35:58;101674.78;;;11.79;100.00
64340;BME280;63709;53.258;-8.814;2024-03-23T09:38:23;101675.00;;;12.29;100.00
64340;BME280;63709;53.258;-8.814;2024-03-23T09:40:52;101668.88;;;12.14;100.00
64340;BME280;63709;53.258;-8.814;2024-03-23T09:43:18;101676.28;;;12.23;100.00
64340;BME280;63709;53.258;-8.814;2024-03-23T09:45:44;101678.22;;;12.34;100.00
64340;BME280;63709;53.258;-8.814;2024-03-23T09:48:10;101687.41;;;12.17;100.00
64340;BME280;63709;53.258;-8.814;2024-03-23T09:50:39;101682.88;;;12.05;100.00
64340;BME280;63709;53.258;-8.814;2024-03-23T09:53:05;101703.47;;;12.17;100.00
64340;BME280;63709;53.258;-8.814;2024-03-23T09:55:31;101693.88;;;12.27;100.00
64340;BME280;63709;53.258;-8.814;2024-03-23T09:57:56;101720.63;;;11.88;100.00
64340;BME280;63709;53.258;-8.814;2024-03-23T10:00:22;101718.53;;;11.23;100.00
64340;BME280;63709;53.258;-8.814;2024-03-23T10:02:48;101723.31;;;10.89;100.00
64340;BME280;63709;53.258;-8.814;2024-03-23T10:05:22;101730.09;;;11.09;100.00
64340;BME280;63709;53.258;-8.814;2024-03-23T10:07:51;101746.47;;;10.74;100.00
64340;BME280;63709;53.258;-8.814;2024-03-23T10:10:16;101741.31;;;10.71;100.00
64340;BME280;63709;53.258;-8.814;2024-03-23T10:12:48;101719.38;;;10.52;100.00
64340;BME280;63709;53.258;-8.814;2024-03-23T10:15:20;101740.00;;;10.78;100.00
64340;BME280;63709;53.258;-8.814;2024-03-23T10:17:46;101737.22;;;10.65;100.00
64340;BME280;63709;53.258;-8.814;2024-03-23T10:20:11;101739.25;;;10.90;100.00
64340;BME280;63709;53.258;-8.814;2024-03-23T10:22:37;101729.13;;;10.96;100.00
64340;BME280;63709;53.258;-8.814;2024-03-23T10:25:07;101731.50;;;11.29;100.00
64340;BME280;63709;53.258;-8.814;2024-03-23T10:27:33;101725.91;;;11.60;100.00
64340;BME280;63709;53.258;-8.814;2024-03-23T10:29:59;101724.81;;;11.92;100.00
64340;BME280;63709;53.258;-8.814;2024-03-23T10:32:32;101725.59;;;12.06;100.00
64340;BME280;63709;53.258;-8.814;2024-03-23T10:34:57;101729.72;;;12.25;100.00
64340;BME280;63709;53.258;-8.814;2024-03-23T10:37:38;101722.72;;;12.62;100.00
64340;BME280;63709;53.258;-8.814;2024-03-23T10:40:04;101725.41;;;12.88;100.00
64340;BME280;63709;53.258;-8.814;2024-03-23T10:42:30;101716.78;;;13.08;100.00
64340;BME280;63709;53.258;-8.814;2024-03-23T10:44:56;101718.31;;;13.25;100.00
64340;BME280;63709;53.258;-8.814;2024-03-23T10:47:21;101718.81;;;13.43;100.00
64340;BME280;63709;53.258;-8.814;2024-03-23T10:49:47;101712.28;;;13.21;100.00
64340;BME280;63709;53.258;-8.814;2024-03-23T10:52:13;101716.78;;;13.34;100.00
64340;BME280;63709;53.258;-8.814;2024-03-23T10:54:39;101718.91;;;13.41;100.00
64340;BME280;63709;53.258;-8.814;2024-03-23T10:57:08;101724.34;;;13.52;100.00
64340;BME280;63709;53.258;-8.814;2024-03-23T10:59:34;101710.59;;;13.57;100.00
64340;BME280;63709;53.258;-8.814;2024-03-23T11:02:02;101726.47;;;13.60;100.00
64340;BME280;63709;53.258;-8.814;2024-03-23T11:04:35;101715.16;;;13.44;100.00
64340;BME280;63709;53.258;-8.814;2024-03-23T11:07:46;101716.31;;;13.52;100.00
64340;BME280;63709;53.258;-8.814;2024-03-23T11:09:46;101708.81;;;13.45;100.00
64340;BME280;63709;53.258;-8.814;2024-03-23T11:14:46;101706.69;;;13.50;100.00
64340;BME280;63709;53.258;-8.814;2024-03-23T11:17:13;101702.22;;;13.86;100.00
64340;BME280;63709;53.258;-8.814;2024-03-23T11:19:43;101706.44;;;14.01;95.23
64340;BME280;63709;53.258;-8.814;2024-03-23T11:22:08;101704.44;;;14.16;89.15
64340;BME280;63709;53.258;-8.814;2024-03-23T11:24:33;101699.84;;;14.29;85.69
64340;BME280;63709;53.258;-8.814;2024-03-23T11:26:59;101707.06;;;14.28;89.01
64340;BME280;63709;53.258;-8.814;2024-03-23T11:29:26;101708.47;;;14.57;87.56
64340;BME280;63709;53.258;-8.814;2024-03-23T11:31:52;101702.69;;;14.39;83.14
64340;BME280;63709;53.258;-8.814;2024-03-23T11:34:18;101710.03;;;14.48;78.96
64340;BME280;63709;53.258;-8.814;2024-03-23T11:36:44;101720.16;;;14.09;78.07
64340;BME280;63709;53.258;-8.814;2024-03-23T11:41:44;101707.66;;;13.97;79.07
64340;BME280;63709;53.258;-8.814;2024-03-23T11:44:17;101709.44;;;13.61;80.17
64340;BME280;63709;53.258;-8.814;2024-03-23T11:46:42;101711.94;;;13.75;83.91
64340;BME280;63709;53.258;-8.814;2024-03-23T11:49:19;101700.34;;;13.75;83.61
64340;BME280;63709;53.258;-8.814;2024-03-23T11:51:44;101696.41;;;13.92;81.08
64340;BME280;63709;53.258;-8.814;2024-03-23T11:54:09;101696.19;;;13.95;80.00
64340;BME280;63709;53.258;-8.814;2024-03-23T11:56:35;101690.84;;;14.41;80.97
64340;BME280;63709;53.258;-8.814;2024-03-23T11:59:00;101686.44;;;14.40;78.53
64340;BME280;63709;53.258;-8.814;2024-03-23T12:01:25;101698.34;;;14.14;77.87
64340;BME280;63709;53.258;-8.814;2024-03-23T12:03:51;101704.47;;;14.27;78.70
64340;BME280;63709;53.258;-8.814;2024-03-23T12:06:19;101709.88;;;14.38;81.79
64340;BME280;63709;53.258;-8.814;2024-03-23T12:08:45;101702.63;;;14.63;81.83
64340;BME280;63709;53.258;-8.814;2024-03-23T12:11:16;101689.59;;;14.69;81.00
64340;BME280;63709;53.258;-8.814;2024-03-23T12:13:42;101689.97;;;14.76;81.23
64340;BME280;63709;53.258;-8.814;2024-03-23T12:16:16;101694.75;;;14.48;80.54
64340;BME280;63709;53.258;-8.814;2024-03-23T12:18:41;101692.50;;;14.66;79.02
64340;BME280;63709;53.258;-8.814;2024-03-23T12:21:07;101686.03;;;14.69;77.74
64340;BME280;63709;53.258;-8.814;2024-03-23T12:23:33;101690.91;;;14.64;73.99
64340;BME280;63709;53.258;-8.814;2024-03-23T12:25:58;101687.75;;;14.92;74.07
64340;BME280;63709;53.258;-8.814;2024-03-23T12:28:24;101694.84;;;14.82;74.67
64340;BME280;63709;53.258;-8.814;2024-03-23T12:30:49;101685.19;;;15.13;73.64
64340;BME280;63709;53.258;-8.814;2024-03-23T12:33:14;101685.69;;;15.07;72.57
64340;BME280;63709;53.258;-8.814;2024-03-23T12:35:39;101692.38;;;15.13;69.93
64340;BME280;63709;53.258;-8.814;2024-03-23T12:38:05;101678.34;;;15.20;63.58
64340;BME280;63709;53.258;-8.814;2024-03-23T12:40:30;101693.06;;;15.60;73.25
64340;BME280;63709;53.258;-8.814;2024-03-23T12:42:55;101703.13;;;15.58;72.47
64340;BME280;63709;53.258;-8.814;2024-03-23T12:45:23;101696.75;;;15.70;68.96
64340;BME280;63709;53.258;-8.814;2024-03-23T12:47:49;101695.03;;;16.01;69.23
64340;BME280;63709;53.258;-8.814;2024-03-23T12:50:14;101697.66;;;16.12;67.74
64340;BME280;63709;53.258;-8.814;2024-03-23T12:52:39;101690.78;;;15.99;67.81
64340;BME280;63709;53.258;-8.814;2024-03-23T12:55:05;101699.94;;;16.28;69.77
64340;BME280;63709;53.258;-8.814;2024-03-23T12:57:33;101681.00;;;16.60;62.58
64340;BME280;63709;53.258;-8.814;2024-03-23T12:59:58;101675.03;;;16.78;63.91
64340;BME280;63709;53.258;-8.814;2024-03-23T13:02:24;101673.47;;;17.15;58.50
64340;BME280;63709;53.258;-8.814;2024-03-23T13:04:49;101675.97;;;17.57;58.86
64340;BME280;63709;53.258;-8.814;2024-03-23T13:07:15;101670.66;;;17.77;54.67
64340;BME280;63709;53.258;-8.814;2024-03-23T13:09:41;101672.47;;;18.34;55.72
64340;BME280;63709;53.258;-8.814;2024-03-23T13:12:06;101667.91;;;18.35;54.50
64340;BME280;63709;53.258;-8.814;2024-03-23T13:14:32;101666.94;;;18.36;52.62
64340;BME280;63709;53.258;-8.814;2024-03-23T13:16:57;101666.75;;;18.94;47.92
64340;BME280;63709;53.258;-8.814;2024-03-23T13:19:22;101670.47;;;18.93;47.47
64340;BME280;63709;53.258;-8.814;2024-03-23T13:21:52;101664.53;;;19.17;49.72
64340;BME280;63709;53.258;-8.814;2024-03-23T13:24:17;101656.63;;;19.06;48.78
64340;BME280;63709;53.258;-8.814;2024-03-23T13:26:42;101662.09;;;19.87;49.70
64340;BME280;63709;53.258;-8.814;2024-03-23T13:29:08;101662.09;;;20.05;49.79
64340;BME280;63709;53.258;-8.814;2024-03-23T13:31:33;101660.88;;;19.81;46.61